Jp Tsubaki — JD2817 — position and weather

sailwx.info

Track history (hours):
 
Tides and Currents Weather Stations Pressure Air Temp Water Temp Dewpoint Dewpoint Depression Visibility Wind Speed Wind Dir Waves Ship Positions

Jp Tsubaki

Last reported at 2015-Jul-03 16:26 UTC. Time now 2015-Jul-03 17:22 UTC.
Position N 35°24' E 139°39'.

Length 115 m; draft 6.5 m.

Type: Cargo ship. MMSI: 431000734.

Date/timePositionNaut miles runAvg speedWind from/ knotsBaromVisibWave heightAir tempDewpointWater temp
2015-Jul-03 16:26N 35°24' E 139°39'0 0.0
2015-Jul-03 15:29N 35°24' E 139°39'0 0.0
2015-Jul-03 14:32N 35°24' E 139°39'0 0.4
2015-Jul-03 13:33N 35°24' E 139°39'5 4.7
2015-Jul-03 12:31N 35°22' E 139°44'0 0.1
2015-Jul-03 11:31N 35°22' E 139°44'2 2.3
2015-Jul-03 10:33N 35°24' E 139°42'2 2.1
2015-Jul-03 09:33N 35°24' E 139°40'0 0.0
2015-Jul-03 08:33N 35°24' E 139°40'0 0.0
2015-Jul-03 07:33N 35°24' E 139°40'0 0.0
2015-Jul-03 06:33N 35°24' E 139°40'0 0.0
2015-Jul-03 05:33N 35°24' E 139°40'0 0.0
2015-Jul-03 04:33N 35°24' E 139°40'1 1.2
2015-Jul-03 03:33N 35°24' E 139°39'0 0.0
2015-Jul-03 02:33N 35°24' E 139°39'0 0.0
2015-Jul-03 01:33N 35°24' E 139°39'0 0.0
2015-Jul-03 00:27N 35°24' E 139°39'0 0.0
2015-Jul-02 23:33N 35°24' E 139°39'0 0.0
2015-Jul-02 22:33N 35°24' E 139°39'0 0.0
2015-Jul-02 21:33N 35°24' E 139°39'0 0.0
2015-Jul-02 20:33N 35°24' E 139°39'0 0.0
2015-Jul-02 19:33N 35°24' E 139°39'0 0.0
2015-Jul-02 18:30N 35°24' E 139°39'0 0.0
2015-Jul-02 17:33N 35°24' E 139°39'0 0.0
2015-Jul-02 16:33N 35°24' E 139°39'0 0.0
2015-Jul-02 15:33N 35°24' E 139°39'0 0.0
2015-Jul-02 14:33N 35°24' E 139°39'0 0.0
2015-Jul-02 13:33N 35°24' E 139°39'2 2.3
2015-Jul-02 12:33N 35°23' E 139°41'8 8.1
2015-Jul-02 11:33N 35°30' E 139°46'2 2.5
2015-Jul-02 10:33N 35°30' E 139°43'0 0.0
2015-Jul-02 09:33N 35°30' E 139°43'0 0.0
2015-Jul-02 08:33N 35°30' E 139°43'0 0.0
2015-Jul-02 07:33N 35°30' E 139°43'0 0.0
2015-Jul-02 06:33N 35°30' E 139°43'0 0.0
2015-Jul-02 05:33N 35°30' E 139°43'2 2.5
2015-Jul-02 04:33N 35°27' E 139°43'5 4.7
2015-Jul-02 03:33N 35°24' E 139°39'0 0.0
2015-Jul-02 02:33N 35°24' E 139°39'0 0.0
2015-Jul-02 01:30N 35°24' E 139°39'0 0.0
2015-Jul-02 00:30N 35°24' E 139°39'0 0.0
2015-Jul-01 22:21N 35°24' E 139°39'0 0.0
2015-Jul-01 21:30N 35°24' E 139°39'0 0.0
2015-Jul-01 20:33N 35°24' E 139°39'0 0.0
2015-Jul-01 19:30N 35°24' E 139°39'0 0.0
2015-Jul-01 18:33N 35°24' E 139°39'0 0.0
2015-Jul-01 17:33N 35°24' E 139°39'0 0.0
2015-Jul-01 16:30N 35°24' E 139°39'0 0.0
2015-Jul-01 15:30N 35°24' E 139°39'0 0.0
2015-Jul-01 14:30N 35°24' E 139°39'0 0.0
2015-Jul-01 13:30N 35°24' E 139°39'2 1.8
2015-Jul-01 12:33N 35°24' E 139°41'8 8.5
2015-Jul-01 11:33N 35°30' E 139°47'3 2.9
2015-Jul-01 10:31N 35°30' E 139°43'0 0.0
2015-Jul-01 09:31N 35°30' E 139°43'0 0.0
2015-Jul-01 08:28N 35°30' E 139°43'0 0.0
2015-Jul-01 07:31N 35°30' E 139°43'0 0.0
2015-Jul-01 06:31N 35°30' E 139°43'0 0.0
2015-Jul-01 05:31N 35°30' E 139°43'2 2.2
2015-Jul-01 04:33N 35°28' E 139°42'5 4.6
2015-Jul-01 03:30N 35°24' E 139°39'0 0.0
2015-Jul-01 02:30N 35°24' E 139°39'0 0.0
2015-Jul-01 01:34N 35°24' E 139°39'0 0.0
2015-Jul-01 00:30N 35°24' E 139°39'0 0.0
2015-Jun-30 23:31N 35°24' E 139°39'0 0.0
2015-Jun-30 22:32N 35°24' E 139°39'0 0.0
2015-Jun-30 21:32N 35°24' E 139°39'0 0.0
2015-Jun-30 20:29N 35°24' E 139°39'0 0.0
2015-Jun-30 19:32N 35°24' E 139°39'0 0.0
2015-Jun-30 18:31N 35°24' E 139°39'0 0.0
2015-Jun-30 17:32N 35°24' E 139°39'0 0.0
2015-Jun-30 16:28N 35°24' E 139°39'0 0.0
2015-Jun-30 15:32N 35°24' E 139°39'0 0.0
2015-Jun-30 14:32N 35°24' E 139°39'0 0.1
2015-Jun-30 13:31N 35°24' E 139°39'4 4.4
2015-Jun-30 12:33N 35°23' E 139°44'0 0.4
2015-Jun-30 11:31N 35°23' E 139°44'0 0.0
2015-Jun-30 10:31N 35°23' E 139°44'0 0.0
2015-Jun-30 09:31N 35°23' E 139°44'0 0.0
2015-Jun-30 08:31N 35°23' E 139°44'0 0.0
2015-Jun-30 07:31N 35°23' E 139°44'7 7.6
2015-Jun-30 06:33N 35°30' E 139°48'4 3.5
2015-Jun-30 05:31N 35°30' E 139°43'0 0.0
2015-Jun-30 04:31N 35°30' E 139°43'0 0.0
2015-Jun-30 03:31N 35°30' E 139°43'0 0.0
2015-Jun-30 02:34N 35°30' E 139°43'0 0.0
2015-Jun-30 01:34N 35°30' E 139°43'0 0.0
2015-Jun-30 00:31N 35°30' E 139°43'0 0.0
2015-Jun-29 23:34N 35°30' E 139°43'5 5.3
2015-Jun-29 22:33N 35°25' E 139°45'1 1.5
2015-Jun-29 21:33N 35°23' E 139°45'0 0.0
2015-Jun-29 20:33N 35°23' E 139°45'0 0.0
2015-Jun-29 19:33N 35°23' E 139°45'0 0.1
2015-Jun-29 18:33N 35°23' E 139°45'0 0.0
2015-Jun-29 17:33N 35°23' E 139°45'0 0.0
2015-Jun-29 16:33N 35°23' E 139°45'0 0.0
2015-Jun-29 15:33N 35°23' E 139°45'0 0.0
2015-Jun-29 14:33N 35°23' E 139°45'0 0.0
2015-Jun-29 13:33N 35°23' E 139°45'5 5.4
2015-Jun-29 12:33N 35°24' E 139°39'0 0.0
2015-Jun-29 11:32N 35°24' E 139°39'0 0.0
2015-Jun-29 10:31N 35°24' E 139°39'0 0.0
2015-Jun-29 09:31N 35°24' E 139°39'0 0.0
2015-Jun-29 08:31N 35°24' E 139°39'0 0.0
2015-Jun-29 07:25N 35°24' E 139°39'0 0.0
2015-Jun-29 06:31N 35°24' E 139°39'0 0.0
2015-Jun-29 05:31N 35°24' E 139°39'0 0.0
2015-Jun-29 04:33N 35°24' E 139°39'1 1.2
2015-Jun-29 03:33N 35°24' E 139°40'0 0.0
2015-Jun-29 02:33N 35°24' E 139°40'0 0.0
2015-Jun-29 01:33N 35°24' E 139°40'0 0.0
2015-Jun-29 00:33N 35°24' E 139°40'0 0.0
2015-Jun-28 23:33N 35°24' E 139°40'0 0.0
2015-Jun-28 22:33N 35°24' E 139°40'1 0.6
2015-Jun-28 21:34N 35°24' E 139°40'4 3.4
2015-Jun-28 20:31N 35°23' E 139°44'0 0.0
2015-Jun-28 19:31N 35°23' E 139°44'0 0.0
2015-Jun-28 18:25N 35°23' E 139°44'0 0.0
2015-Jun-28 17:31N 35°23' E 139°44'0 0.0
2015-Jun-28 16:31N 35°23' E 139°44'0 0.0
2015-Jun-28 15:31N 35°23' E 139°44'0 0.0
2015-Jun-28 14:31N 35°23' E 139°44'0 0.1
2015-Jun-28 13:33N 35°23' E 139°44'5 5.0
2015-Jun-28 12:33N 35°24' E 139°39'0 0.0
2015-Jun-28 11:33N 35°24' E 139°39'0 0.0
2015-Jun-28 10:30N 35°24' E 139°39'0 0.0
2015-Jun-28 09:33N 35°24' E 139°39'0 0.0
2015-Jun-28 08:33N 35°24' E 139°39'0 0.0
2015-Jun-28 07:33N 35°24' E 139°39'0 0.0
2015-Jun-28 06:27N 35°24' E 139°39'0 0.0
2015-Jun-28 05:33N 35°24' E 139°39'0 0.0
2015-Jun-28 04:33N 35°24' E 139°39'1 1.2
2015-Jun-28 03:33N 35°24' E 139°40'0 0.0
2015-Jun-28 02:33N 35°24' E 139°40'0 0.0
2015-Jun-28 01:33N 35°24' E 139°40'0 0.0
2015-Jun-28 00:30N 35°24' E 139°40'0 0.0
2015-Jun-27 23:33N 35°24' E 139°40'0 0.0
2015-Jun-27 22:33N 35°24' E 139°40'2 1.8
2015-Jun-27 21:33N 35°23' E 139°41'2 2.3
2015-Jun-27 20:33N 35°23' E 139°44'0 0.0
2015-Jun-27 19:33N 35°23' E 139°44'0 0.0
2015-Jun-27 18:33N 35°23' E 139°44'0 0.0
2015-Jun-27 17:33N 35°23' E 139°44'0 0.0
2015-Jun-27 16:33N 35°23' E 139°44'0 0.1
2015-Jun-27 15:33N 35°23' E 139°44'0 0.1
2015-Jun-27 14:33N 35°23' E 139°44'0 0.0
2015-Jun-27 13:33N 35°23' E 139°44'5 4.9
2015-Jun-27 12:33N 35°24' E 139°39'0 0.0
2015-Jun-27 11:31N 35°24' E 139°39'0 0.0
2015-Jun-27 10:31N 35°24' E 139°39'0 0.0
2015-Jun-27 09:31N 35°24' E 139°39'0 0.0
2015-Jun-27 08:31N 35°24' E 139°39'0 0.0
2015-Jun-27 07:28N 35°24' E 139°39'0 0.0
2015-Jun-27 06:31N 35°24' E 139°39'0 0.0
2015-Jun-27 05:31N 35°24' E 139°39'0 0.0
2015-Jun-27 04:33N 35°24' E 139°39'1 1.2
2015-Jun-27 03:32N 35°24' E 139°40'0 0.0
2015-Jun-27 02:32N 35°24' E 139°40'0 0.0
2015-Jun-27 01:32N 35°24' E 139°40'0 0.0
2015-Jun-27 00:32N 35°24' E 139°40'0 0.0
2015-Jun-26 23:32N 35°24' E 139°40'0 0.0
2015-Jun-26 22:32N 35°24' E 139°40'2 2.1
2015-Jun-26 21:33N 35°23' E 139°42'2 2.1
2015-Jun-26 20:31N 35°23' E 139°45'0 0.0
2015-Jun-26 19:31N 35°23' E 139°45'0 0.0
2015-Jun-26 18:31N 35°23' E 139°45'0 0.0
2015-Jun-26 17:28N 35°23' E 139°45'0 0.0
2015-Jun-26 16:31N 35°23' E 139°45'0 0.0
2015-Jun-26 15:31N 35°23' E 139°45'0 0.1
2015-Jun-26 14:31N 35°23' E 139°45'0 0.1
2015-Jun-26 13:31N 35°23' E 139°45'5 5.6
2015-Jun-26 12:33N 35°24' E 139°39'0 0.0
2015-Jun-26 11:32N 35°24' E 139°39'0 0.0
2015-Jun-26 10:29N 35°24' E 139°39'0 0.0
2015-Jun-26 09:29N 35°24' E 139°39'0 0.0
2015-Jun-26 08:32N 35°24' E 139°39'0 0.0
2015-Jun-26 07:32N 35°24' E 139°39'0 0.0
2015-Jun-26 06:32N 35°24' E 139°39'0 0.0
2015-Jun-26 05:32N 35°24' E 139°39'0 0.0
2015-Jun-26 04:33N 35°24' E 139°39'1 1.2
2015-Jun-26 03:33N 35°24' E 139°40'0 0.0
2015-Jun-26 02:33N 35°24' E 139°40'0 0.0
2015-Jun-26 01:33N 35°24' E 139°40'0 0.0
2015-Jun-26 00:33N 35°24' E 139°40'0 0.0
2015-Jun-25 23:33N 35°24' E 139°40'0 0.0
2015-Jun-25 22:33N 35°24' E 139°40'2 2.2
2015-Jun-25 21:34N 35°24' E 139°43'1 1.5
2015-Jun-25 20:32N 35°23' E 139°44'0 0.0
2015-Jun-25 19:32N 35°23' E 139°44'0 0.0
2015-Jun-25 18:32N 35°23' E 139°44'0 0.0
2015-Jun-25 17:32N 35°23' E 139°44'0 0.1
2015-Jun-25 16:32N 35°23' E 139°44'0 0.0
2015-Jun-25 15:32N 35°23' E 139°44'0 0.1
2015-Jun-25 14:32N 35°23' E 139°44'0 0.1
2015-Jun-25 13:32N 35°23' E 139°44'4 4.6
2015-Jun-25 12:33N 35°24' E 139°39'0 0.0
2015-Jun-25 11:32N 35°24' E 139°39'0 0.0
2015-Jun-25 10:32N 35°24' E 139°39'0 0.0
2015-Jun-25 09:32N 35°24' E 139°39'0 0.0
2015-Jun-25 08:32N 35°24' E 139°39'0 0.0
2015-Jun-25 07:32N 35°24' E 139°39'0 0.0
2015-Jun-25 06:32N 35°24' E 139°39'0 0.0
2015-Jun-25 05:29N 35°24' E 139°39'0 0.0
2015-Jun-25 04:26N 35°24' E 139°39'0 0.0
2015-Jun-25 03:29N 35°24' E 139°39'0 0.0
2015-Jun-25 02:29N 35°24' E 139°39'0 0.0
2015-Jun-25 01:32N 35°24' E 139°39'0 0.0
2015-Jun-25 00:29N 35°24' E 139°39'0 0.0
2015-Jun-24 23:29N 35°24' E 139°39'0 0.0
2015-Jun-24 22:29N 35°24' E 139°39'0 0.0
2015-Jun-24 21:17N 35°24' E 139°39'0 0.0
2015-Jun-24 20:29N 35°24' E 139°39'0 0.0
2015-Jun-24 19:29N 35°24' E 139°39'0 0.0
2015-Jun-24 18:17N 35°24' E 139°39'0 0.1
2015-Jun-24 17:23N 35°24' E 139°39'0 0.0
2015-Jun-24 16:29N 35°24' E 139°39'0 0.0
2015-Jun-24 15:32N 35°24' E 139°39'0 0.0
2015-Jun-24 14:32N 35°24' E 139°39'0 0.0
2015-Jun-24 13:32N 35°24' E 139°39'1 1.2
2015-Jun-24 12:33N 35°24' E 139°40'0 0.1
2015-Jun-24 11:33N 35°24' E 139°40'0 0.0
2015-Jun-24 10:33N 35°24' E 139°40'0 0.0
2015-Jun-24 09:33N 35°24' E 139°40'0 0.0
2015-Jun-24 08:33N 35°24' E 139°40'0 0.0
2015-Jun-24 07:33N 35°24' E 139°40'0 0.0
2015-Jun-24 06:33N 35°24' E 139°40'0 0.0
2015-Jun-24 05:33N 35°24' E 139°40'0 0.0
2015-Jun-24 04:33N 35°24' E 139°40'1 1.1
2015-Jun-24 03:30N 35°24' E 139°39'0 0.0
2015-Jun-24 02:33N 35°24' E 139°39'0 0.0
2015-Jun-24 01:32N 35°24' E 139°39'0 0.0
2015-Jun-24 00:33N 35°24' E 139°39'0 0.0
2015-Jun-23 23:33N 35°24' E 139°39'0 0.0
2015-Jun-23 22:32N 35°24' E 139°39'0 0.0
2015-Jun-23 21:33N 35°24' E 139°39'0 0.0
2015-Jun-23 20:33N 35°24' E 139°39'0 0.0
2015-Jun-23 19:33N 35°24' E 139°39'0 0.0
2015-Jun-23 19:06N 35°24' E 139°39'  
Track history (hours):
 
Tides and Currents Weather Stations Pressure Air Temp Water Temp Dewpoint Dewpoint Depression Visibility Wind Speed Wind Dir Waves Ship Positions

Jp Tsubaki

Last reported at 2015-Jul-03 16:26 UTC. Time now 2015-Jul-03 17:22 UTC.
Position N 35°24' E 139°39'.

Length 115 m; draft 6.5 m.

Type: Cargo ship. MMSI: 431000734.

Date/timePositionNaut miles runAvg speedWind from/ knotsBaromVisibWave heightAir tempDewpointWater temp
2015-Jul-03 16:26N 35°24' E 139°39'0 0.0
2015-Jul-03 15:29N 35°24' E 139°39'0 0.0
2015-Jul-03 14:32N 35°24' E 139°39'0 0.4
2015-Jul-03 13:33N 35°24' E 139°39'5 4.7
2015-Jul-03 12:31N 35°22' E 139°44'0 0.1
2015-Jul-03 11:31N 35°22' E 139°44'2 2.3
2015-Jul-03 10:33N 35°24' E 139°42'2 2.1
2015-Jul-03 09:33N 35°24' E 139°40'0 0.0
2015-Jul-03 08:33N 35°24' E 139°40'0 0.0
2015-Jul-03 07:33N 35°24' E 139°40'0 0.0
2015-Jul-03 06:33N 35°24' E 139°40'0 0.0
2015-Jul-03 05:33N 35°24' E 139°40'0 0.0
2015-Jul-03 04:33N 35°24' E 139°40'1 1.2
2015-Jul-03 03:33N 35°24' E 139°39'0 0.0
2015-Jul-03 02:33N 35°24' E 139°39'0 0.0
2015-Jul-03 01:33N 35°24' E 139°39'0 0.0
2015-Jul-03 00:27N 35°24' E 139°39'0 0.0
2015-Jul-02 23:33N 35°24' E 139°39'0 0.0
2015-Jul-02 22:33N 35°24' E 139°39'0 0.0
2015-Jul-02 21:33N 35°24' E 139°39'0 0.0
2015-Jul-02 20:33N 35°24' E 139°39'0 0.0
2015-Jul-02 19:33N 35°24' E 139°39'0 0.0
2015-Jul-02 18:30N 35°24' E 139°39'0 0.0
2015-Jul-02 17:33N 35°24' E 139°39'0 0.0
2015-Jul-02 16:33N 35°24' E 139°39'0 0.0
2015-Jul-02 15:33N 35°24' E 139°39'0 0.0
2015-Jul-02 14:33N 35°24' E 139°39'0 0.0
2015-Jul-02 13:33N 35°24' E 139°39'2 2.3
2015-Jul-02 12:33N 35°23' E 139°41'8 8.1
2015-Jul-02 11:33N 35°30' E 139°46'2 2.5
2015-Jul-02 10:33N 35°30' E 139°43'0 0.0
2015-Jul-02 09:33N 35°30' E 139°43'0 0.0
2015-Jul-02 08:33N 35°30' E 139°43'0 0.0
2015-Jul-02 07:33N 35°30' E 139°43'0 0.0
2015-Jul-02 06:33N 35°30' E 139°43'0 0.0
2015-Jul-02 05:33N 35°30' E 139°43'2 2.5
2015-Jul-02 04:33N 35°27' E 139°43'5 4.7
2015-Jul-02 03:33N 35°24' E 139°39'0 0.0
2015-Jul-02 02:33N 35°24' E 139°39'0 0.0
2015-Jul-02 01:30N 35°24' E 139°39'0 0.0
2015-Jul-02 00:30N 35°24' E 139°39'0 0.0
2015-Jul-01 22:21N 35°24' E 139°39'0 0.0
2015-Jul-01 21:30N 35°24' E 139°39'0 0.0
2015-Jul-01 20:33N 35°24' E 139°39'0 0.0
2015-Jul-01 19:30N 35°24' E 139°39'0 0.0
2015-Jul-01 18:33N 35°24' E 139°39'0 0.0
2015-Jul-01 17:33N 35°24' E 139°39'0 0.0
2015-Jul-01 16:30N 35°24' E 139°39'0 0.0
2015-Jul-01 15:30N 35°24' E 139°39'0 0.0
2015-Jul-01 14:30N 35°24' E 139°39'0 0.0
2015-Jul-01 13:30N 35°24' E 139°39'2 1.8
2015-Jul-01 12:33N 35°24' E 139°41'8 8.5
2015-Jul-01 11:33N 35°30' E 139°47'3 2.9
2015-Jul-01 10:31N 35°30' E 139°43'0 0.0
2015-Jul-01 09:31N 35°30' E 139°43'0 0.0
2015-Jul-01 08:28N 35°30' E 139°43'0 0.0
2015-Jul-01 07:31N 35°30' E 139°43'0 0.0
2015-Jul-01 06:31N 35°30' E 139°43'0 0.0
2015-Jul-01 05:31N 35°30' E 139°43'2 2.2
2015-Jul-01 04:33N 35°28' E 139°42'5 4.6
2015-Jul-01 03:30N 35°24' E 139°39'0 0.0
2015-Jul-01 02:30N 35°24' E 139°39'0 0.0
2015-Jul-01 01:34N 35°24' E 139°39'0 0.0
2015-Jul-01 00:30N 35°24' E 139°39'0 0.0
2015-Jun-30 23:31N 35°24' E 139°39'0 0.0
2015-Jun-30 22:32N 35°24' E 139°39'0 0.0
2015-Jun-30 21:32N 35°24' E 139°39'0 0.0
2015-Jun-30 20:29N 35°24' E 139°39'0 0.0
2015-Jun-30 19:32N 35°24' E 139°39'0 0.0
2015-Jun-30 18:31N 35°24' E 139°39'0 0.0
2015-Jun-30 17:32N 35°24' E 139°39'0 0.0
2015-Jun-30 16:28N 35°24' E 139°39'0 0.0
2015-Jun-30 15:32N 35°24' E 139°39'0 0.0
2015-Jun-30 14:32N 35°24' E 139°39'0 0.1
2015-Jun-30 13:31N 35°24' E 139°39'4 4.4
2015-Jun-30 12:33N 35°23' E 139°44'0 0.4
2015-Jun-30 11:31N 35°23' E 139°44'0 0.0
2015-Jun-30 10:31N 35°23' E 139°44'0 0.0
2015-Jun-30 09:31N 35°23' E 139°44'0 0.0
2015-Jun-30 08:31N 35°23' E 139°44'0 0.0
2015-Jun-30 07:31N 35°23' E 139°44'7 7.6
2015-Jun-30 06:33N 35°30' E 139°48'4 3.5
2015-Jun-30 05:31N 35°30' E 139°43'0 0.0
2015-Jun-30 04:31N 35°30' E 139°43'0 0.0
2015-Jun-30 03:31N 35°30' E 139°43'0 0.0
2015-Jun-30 02:34N 35°30' E 139°43'0 0.0
2015-Jun-30 01:34N 35°30' E 139°43'0 0.0
2015-Jun-30 00:31N 35°30' E 139°43'0 0.0
2015-Jun-29 23:34N 35°30' E 139°43'5 5.3
2015-Jun-29 22:33N 35°25' E 139°45'1 1.5
2015-Jun-29 21:33N 35°23' E 139°45'0 0.0
2015-Jun-29 20:33N 35°23' E 139°45'0 0.0
2015-Jun-29 19:33N 35°23' E 139°45'0 0.1
2015-Jun-29 18:33N 35°23' E 139°45'0 0.0
2015-Jun-29 17:33N 35°23' E 139°45'0 0.0
2015-Jun-29 16:33N 35°23' E 139°45'0 0.0
2015-Jun-29 15:33N 35°23' E 139°45'0 0.0
2015-Jun-29 14:33N 35°23' E 139°45'0 0.0
2015-Jun-29 13:33N 35°23' E 139°45'5 5.4
2015-Jun-29 12:33N 35°24' E 139°39'0 0.0
2015-Jun-29 11:32N 35°24' E 139°39'0 0.0
2015-Jun-29 10:31N 35°24' E 139°39'0 0.0
2015-Jun-29 09:31N 35°24' E 139°39'0 0.0
2015-Jun-29 08:31N 35°24' E 139°39'0 0.0
2015-Jun-29 07:25N 35°24' E 139°39'0 0.0
2015-Jun-29 06:31N 35°24' E 139°39'0 0.0
2015-Jun-29 05:31N 35°24' E 139°39'0 0.0
2015-Jun-29 04:33N 35°24' E 139°39'1 1.2
2015-Jun-29 03:33N 35°24' E 139°40'0 0.0
2015-Jun-29 02:33N 35°24' E 139°40'0 0.0
2015-Jun-29 01:33N 35°24' E 139°40'0 0.0
2015-Jun-29 00:33N 35°24' E 139°40'0 0.0
2015-Jun-28 23:33N 35°24' E 139°40'0 0.0
2015-Jun-28 22:33N 35°24' E 139°40'1 0.6
2015-Jun-28 21:34N 35°24' E 139°40'4 3.4
2015-Jun-28 20:31N 35°23' E 139°44'0 0.0
2015-Jun-28 19:31N 35°23' E 139°44'0 0.0
2015-Jun-28 18:25N 35°23' E 139°44'0 0.0
2015-Jun-28 17:31N 35°23' E 139°44'0 0.0
2015-Jun-28 16:31N 35°23' E 139°44'0 0.0
2015-Jun-28 15:31N 35°23' E 139°44'0 0.0
2015-Jun-28 14:31N 35°23' E 139°44'0 0.1
2015-Jun-28 13:33N 35°23' E 139°44'5 5.0
2015-Jun-28 12:33N 35°24' E 139°39'0 0.0
2015-Jun-28 11:33N 35°24' E 139°39'0 0.0
2015-Jun-28 10:30N 35°24' E 139°39'0 0.0
2015-Jun-28 09:33N 35°24' E 139°39'0 0.0
2015-Jun-28 08:33N 35°24' E 139°39'0 0.0
2015-Jun-28 07:33N 35°24' E 139°39'0 0.0
2015-Jun-28 06:27N 35°24' E 139°39'0 0.0
2015-Jun-28 05:33N 35°24' E 139°39'0 0.0
2015-Jun-28 04:33N 35°24' E 139°39'1 1.2
2015-Jun-28 03:33N 35°24' E 139°40'0 0.0
2015-Jun-28 02:33N 35°24' E 139°40'0 0.0
2015-Jun-28 01:33N 35°24' E 139°40'0 0.0
2015-Jun-28 00:30N 35°24' E 139°40'0 0.0
2015-Jun-27 23:33N 35°24' E 139°40'0 0.0
2015-Jun-27 22:33N 35°24' E 139°40'2 1.8
2015-Jun-27 21:33N 35°23' E 139°41'2 2.3
2015-Jun-27 20:33N 35°23' E 139°44'0 0.0
2015-Jun-27 19:33N 35°23' E 139°44'0 0.0
2015-Jun-27 18:33N 35°23' E 139°44'0 0.0
2015-Jun-27 17:33N 35°23' E 139°44'0 0.0
2015-Jun-27 16:33N 35°23' E 139°44'0 0.1
2015-Jun-27 15:33N 35°23' E 139°44'0 0.1
2015-Jun-27 14:33N 35°23' E 139°44'0 0.0
2015-Jun-27 13:33N 35°23' E 139°44'5 4.9
2015-Jun-27 12:33N 35°24' E 139°39'0 0.0
2015-Jun-27 11:31N 35°24' E 139°39'0 0.0
2015-Jun-27 10:31N 35°24' E 139°39'0 0.0
2015-Jun-27 09:31N 35°24' E 139°39'0 0.0
2015-Jun-27 08:31N 35°24' E 139°39'0 0.0
2015-Jun-27 07:28N 35°24' E 139°39'0 0.0
2015-Jun-27 06:31N 35°24' E 139°39'0 0.0
2015-Jun-27 05:31N 35°24' E 139°39'0 0.0
2015-Jun-27 04:33N 35°24' E 139°39'1 1.2
2015-Jun-27 03:32N 35°24' E 139°40'0 0.0
2015-Jun-27 02:32N 35°24' E 139°40'0 0.0
2015-Jun-27 01:32N 35°24' E 139°40'0 0.0
2015-Jun-27 00:32N 35°24' E 139°40'0 0.0
2015-Jun-26 23:32N 35°24' E 139°40'0 0.0
2015-Jun-26 22:32N 35°24' E 139°40'2 2.1
2015-Jun-26 21:33N 35°23' E 139°42'2 2.1
2015-Jun-26 20:31N 35°23' E 139°45'0 0.0
2015-Jun-26 19:31N 35°23' E 139°45'0 0.0
2015-Jun-26 18:31N 35°23' E 139°45'0 0.0
2015-Jun-26 17:28N 35°23' E 139°45'0 0.0
2015-Jun-26 16:31N 35°23' E 139°45'0 0.0
2015-Jun-26 15:31N 35°23' E 139°45'0 0.1
2015-Jun-26 14:31N 35°23' E 139°45'0 0.1
2015-Jun-26 13:31N 35°23' E 139°45'5 5.6
2015-Jun-26 12:33N 35°24' E 139°39'0 0.0
2015-Jun-26 11:32N 35°24' E 139°39'0 0.0
2015-Jun-26 10:29N 35°24' E 139°39'0 0.0
2015-Jun-26 09:29N 35°24' E 139°39'0 0.0
2015-Jun-26 08:32N 35°24' E 139°39'0 0.0
2015-Jun-26 07:32N 35°24' E 139°39'0 0.0
2015-Jun-26 06:32N 35°24' E 139°39'0 0.0
2015-Jun-26 05:32N 35°24' E 139°39'0 0.0
2015-Jun-26 04:33N 35°24' E 139°39'1 1.2
2015-Jun-26 03:33N 35°24' E 139°40'0 0.0
2015-Jun-26 02:33N 35°24' E 139°40'0 0.0
2015-Jun-26 01:33N 35°24' E 139°40'0 0.0
2015-Jun-26 00:33N 35°24' E 139°40'0 0.0
2015-Jun-25 23:33N 35°24' E 139°40'0 0.0
2015-Jun-25 22:33N 35°24' E 139°40'2 2.2
2015-Jun-25 21:34N 35°24' E 139°43'1 1.5
2015-Jun-25 20:32N 35°23' E 139°44'0 0.0
2015-Jun-25 19:32N 35°23' E 139°44'0 0.0
2015-Jun-25 18:32N 35°23' E 139°44'0 0.0
2015-Jun-25 17:32N 35°23' E 139°44'0 0.1
2015-Jun-25 16:32N 35°23' E 139°44'0 0.0
2015-Jun-25 15:32N 35°23' E 139°44'0 0.1
2015-Jun-25 14:32N 35°23' E 139°44'0 0.1
2015-Jun-25 13:32N 35°23' E 139°44'4 4.6
2015-Jun-25 12:33N 35°24' E 139°39'0 0.0
2015-Jun-25 11:32N 35°24' E 139°39'0 0.0
2015-Jun-25 10:32N 35°24' E 139°39'0 0.0
2015-Jun-25 09:32N 35°24' E 139°39'0 0.0
2015-Jun-25 08:32N 35°24' E 139°39'0 0.0
2015-Jun-25 07:32N 35°24' E 139°39'0 0.0
2015-Jun-25 06:32N 35°24' E 139°39'0 0.0
2015-Jun-25 05:29N 35°24' E 139°39'0 0.0
2015-Jun-25 04:26N 35°24' E 139°39'0 0.0
2015-Jun-25 03:29N 35°24' E 139°39'0 0.0
2015-Jun-25 02:29N 35°24' E 139°39'0 0.0
2015-Jun-25 01:32N 35°24' E 139°39'0 0.0
2015-Jun-25 00:29N 35°24' E 139°39'0 0.0
2015-Jun-24 23:29N 35°24' E 139°39'0 0.0
2015-Jun-24 22:29N 35°24' E 139°39'0 0.0
2015-Jun-24 21:17N 35°24' E 139°39'0 0.0
2015-Jun-24 20:29N 35°24' E 139°39'0 0.0
2015-Jun-24 19:29N 35°24' E 139°39'0 0.0
2015-Jun-24 18:17N 35°24' E 139°39'0 0.1
2015-Jun-24 17:23N 35°24' E 139°39'0 0.0
2015-Jun-24 16:29N 35°24' E 139°39'0 0.0
2015-Jun-24 15:32N 35°24' E 139°39'0 0.0
2015-Jun-24 14:32N 35°24' E 139°39'0 0.0
2015-Jun-24 13:32N 35°24' E 139°39'1 1.2
2015-Jun-24 12:33N 35°24' E 139°40'0 0.1
2015-Jun-24 11:33N 35°24' E 139°40'0 0.0
2015-Jun-24 10:33N 35°24' E 139°40'0 0.0
2015-Jun-24 09:33N 35°24' E 139°40'0 0.0
2015-Jun-24 08:33N 35°24' E 139°40'0 0.0
2015-Jun-24 07:33N 35°24' E 139°40'0 0.0
2015-Jun-24 06:33N 35°24' E 139°40'0 0.0
2015-Jun-24 05:33N 35°24' E 139°40'0 0.0
2015-Jun-24 04:33N 35°24' E 139°40'1 1.1
2015-Jun-24 03:30N 35°24' E 139°39'0 0.0
2015-Jun-24 02:33N 35°24' E 139°39'0 0.0
2015-Jun-24 01:32N 35°24' E 139°39'0 0.0
2015-Jun-24 00:33N 35°24' E 139°39'0 0.0
2015-Jun-23 23:33N 35°24' E 139°39'0 0.0
2015-Jun-23 22:32N 35°24' E 139°39'0 0.0
2015-Jun-23 21:33N 35°24' E 139°39'0 0.0
2015-Jun-23 20:33N 35°24' E 139°39'0 0.0
2015-Jun-23 19:33N 35°24' E 139°39'0 0.0
2015-Jun-23 19:06N 35°24' E 139°39'  

Dump ship's entire track history